Time;durP1;ratioP1;P1;durP2;ratioP2;P2;SDS_P1;SDS_P2;PMS_P1;PMS_P2;Temp;Humidity;BMP_temperature;BMP_pressure;BME280_temperature;BME280_humidity;BME280_pressure;Samples;Min_cycle;Max_cycle;Signal;HPM_P1;HPM_P2
2022/09/17 00:01:23;;;;;;;10.00;6.12;;;;;;;14.28;97.25;99100.91;4454033;32;33080;-85
2022/09/17 00:03:57;;;;;;;14.15;6.03;;;;;;;14.54;96.04;99100.47;4440333;32;33780;-88
2022/09/17 00:06:25;;;;;;;10.00;6.53;;;;;;;14.12;97.90;99101.47;4468182;32;33909;-85
2022/09/17 00:08:53;;;;;;;9.50;7.03;;;;;;;13.87;100.00;99105.28;4453354;32;34260;-88
2022/09/17 00:11:25;;;;;;;13.18;7.28;;;;;;;13.76;100.00;99103.34;4447122;32;33145;-86
2022/09/17 00:13:53;;;;;;;11.35;6.68;;;;;;;13.78;100.00;99106.00;4454897;32;34077;-87
2022/09/17 00:16:26;;;;;;;10.48;6.00;;;;;;;14.56;96.28;99098.78;4453947;32;34694;-87
2022/09/17 00:18:54;;;;;;;10.35;6.70;;;;;;;15.65;89.43;99097.88;4473360;32;33854;-86
2022/09/17 00:21:22;;;;;;;9.75;6.25;;;;;;;15.79;86.87;99095.47;4466317;32;32528;-86
2022/09/17 00:24:02;;;;;;;11.12;6.60;;;;;;;15.87;86.02;99099.03;4458672;32;34305;-86
2022/09/17 00:26:30;;;;;;;11.98;6.57;;;;;;;14.73;94.89;99092.16;4448324;32;34321;-85
2022/09/17 00:28:59;;;;;;;11.95;6.40;;;;;;;15.58;88.45;99095.16;4447780;32;33924;-87
2022/09/17 00:31:27;;;;;;;11.57;6.55;;;;;;;15.67;87.30;99084.84;4435564;32;33863;-89
2022/09/17 00:33:57;;;;;;;9.52;6.50;;;;;;;14.85;93.15;99093.22;4449234;32;34682;-89
2022/09/17 00:36:24;;;;;;;9.05;6.57;;;;;;;15.42;89.03;99087.13;4424052;32;32791;-86
2022/09/17 00:38:54;;;;;;;16.80;7.10;;;;;;;15.26;90.50;99083.44;4463422;32;32380;-86
2022/09/17 00:41:24;;;;;;;11.07;6.97;;;;;;;15.67;87.27;99061.34;4437295;32;33529;-87
2022/09/17 00:43:54;;;;;;;10.80;7.68;;;;;;;15.82;85.71;99053.72;4447240;32;33622;-88
2022/09/17 00:46:37;;;;;;;10.90;6.85;;;;;;;14.38;95.83;99064.59;4450786;32;34166;-87
2022/09/17 00:49:10;;;;;;;12.85;7.55;;;;;;;15.08;92.01;99065.75;4453520;32;33374;-87
2022/09/17 00:51:40;;;;;;;12.32;7.97;;;;;;;15.44;89.43;99051.47;4441973;32;34081;-87
2022/09/17 00:54:09;;;;;;;12.93;7.50;;;;;;;15.63;87.25;99051.72;4441784;32;32677;-87
2022/09/17 00:56:38;;;;;;;15.25;8.38;;;;;;;15.00;90.39;99050.84;4426416;32;33199;-84
2022/09/17 00:59:07;;;;;;;12.35;7.60;;;;;;;14.84;91.72;99058.44;4445551;32;33252;-85
2022/09/17 01:01:35;;;;;;;14.43;8.32;;;;;;;15.27;90.61;99047.75;4453842;32;34756;-84
2022/09/17 01:04:02;;;;;;;12.85;7.72;;;;;;;15.38;89.63;99040.09;4454748;32;33540;-84
2022/09/17 01:06:49;;;;;;;11.43;7.65;;;;;;;15.85;86.04;99037.22;4449074;32;33874;-84
2022/09/17 01:10:05;;;;;;;11.98;7.57;;;;;;;16.11;84.16;99050.56;4458552;32;33255;-85
2022/09/17 01:13:04;;;;;;;11.10;6.75;;;;;;;15.95;84.63;99048.63;4447699;32;33765;-84
2022/09/17 01:15:54;;;;;;;12.10;7.57;;;;;;;16.00;84.52;99049.56;4451022;32;33867;-84
2022/09/17 01:18:39;;;;;;;12.48;8.18;;;;;;;16.04;84.04;99040.91;4448786;32;34170;-85
2022/09/17 01:21:30;;;;;;;12.20;7.45;;;;;;;16.10;83.64;99039.22;4447060;32;34125;-85
2022/09/17 01:24:35;;;;;;;16.77;8.00;;;;;;;14.79;90.49;99051.41;4449509;32;34583;-84
2022/09/17 01:27:41;;;;;;;16.80;7.90;;;;;;;15.78;86.31;99051.94;4442834;32;33782;-84
2022/09/17 01:30:30;;;;;;;11.55;8.40;;;;;;;14.88;91.58;99064.59;4450010;32;34636;-86
2022/09/17 01:33:11;;;;;;;11.55;8.73;;;;;;;15.25;90.47;99060.78;4452572;32;33553;-85
2022/09/17 01:35:52;;;;;;;14.95;8.52;;;;;;;15.05;91.53;99063.13;4449674;32;33821;-86
2022/09/17 01:38:39;;;;;;;14.82;9.40;;;;;;;14.99;89.82;99070.84;4431484;32;32394;-85
2022/09/17 01:41:23;;;;;;;16.25;8.75;;;;;;;15.17;90.57;99083.28;4449430;32;35431;-87
2022/09/17 01:44:02;;;;;;;15.68;8.63;;;;;;;15.29;89.78;99090.41;4458993;32;34163;-86
2022/09/17 01:46:33;;;;;;;14.95;9.70;;;;;;;15.54;87.38;99087.28;4445829;32;34364;-84
2022/09/17 01:49:03;;;;;;;15.73;9.90;;;;;;;13.88;96.61;99092.31;4448646;32;33839;-86
2022/09/17 01:51:37;;;;;;;15.23;9.93;;;;;;;14.59;91.65;99093.66;4452211;32;34201;-84
2022/09/17 01:54:28;;;;;;;12.82;8.13;;;;;;;14.63;92.84;99090.25;4442497;32;32091;-87
2022/09/17 01:57:17;;;;;;;11.85;8.70;;;;;;;15.04;87.77;99086.56;4443334;32;34526;-84
2022/09/17 01:59:49;;;;;;;11.73;8.30;;;;;;;14.86;88.46;99087.16;4449605;32;33952;-86
2022/09/17 02:02:30;;;;;;;12.75;8.25;;;;;;;14.25;92.76;99086.94;4453291;32;34092;-87
2022/09/17 02:05:05;;;;;;;13.35;8.48;;;;;;;13.56;96.01;99087.31;4451194;32;33771;-87
2022/09/17 02:07:38;;;;;;;15.90;9.02;;;;;;;14.14;92.40;99081.53;4453295;26;33484;-74
2022/09/17 02:10:10;;;;;;;13.45;8.60;;;;;;;14.23;91.14;99073.88;4421901;32;34598;-74
2022/09/17 02:12:42;;;;;;;12.63;8.30;;;;;;;14.28;90.72;99067.03;4438542;32;33862;-72
2022/09/17 02:15:21;;;;;;;10.15;7.32;;;;;;;13.77;93.27;99067.78;4423795;32;34386;-73
2022/09/17 02:17:53;;;;;;;10.75;7.47;;;;;;;15.36;84.64;99068.78;4410381;32;34229;-74
2022/09/17 02:20:26;;;;;;;11.32;7.65;;;;;;;14.13;89.77;99075.44;4410744;32;34622;-73
2022/09/17 02:22:59;;;;;;;11.95;7.32;;;;;;;13.80;93.00;99067.84;4423036;32;33772;-74
2022/09/17 02:25:36;;;;;;;10.82;7.47;;;;;;;13.87;92.00;99066.22;4419391;32;33484;-73
2022/09/17 02:28:10;;;;;;;14.00;7.70;;;;;;;13.85;91.13;99061.03;4438241;32;33866;-73
2022/09/17 02:30:38;;;;;;;10.30;7.25;;;;;;;13.88;90.63;99066.28;4423585;32;34082;-72
2022/09/17 02:33:08;;;;;;;9.85;7.32;;;;;;;14.01;91.00;99061.31;4408488;32;33741;-74
2022/09/17 02:35:37;;;;;;;13.13;6.93;;;;;;;14.35;88.58;99058.47;4423711;32;32961;-73
2022/09/17 02:38:06;;;;;;;9.52;7.30;;;;;;;13.60;92.42;99058.75;4429705;32;33714;-73
2022/09/17 02:40:45;;;;;;;15.07;7.10;;;;;;;13.76;91.61;99055.63;4430001;32;34812;-73
2022/09/17 02:43:22;;;;;;;9.85;6.97;;;;;;;14.70;86.26;99050.41;4420624;32;34580;-72
2022/09/17 02:46:10;;;;;;;10.45;7.15;;;;;;;14.57;86.55;99052.78;4419963;32;33596;-73
2022/09/17 02:49:03;;;;;;;9.10;6.57;;;;;;;14.56;87.27;99051.88;4427959;32;33556;-75
2022/09/17 02:51:46;;;;;;;9.60;6.40;;;;;;;15.39;82.07;99039.22;4430169;32;34565;-75
2022/09/17 02:54:24;;;;;;;9.13;6.18;;;;;;;14.40;86.38;99044.66;4433205;32;34218;-75
2022/09/17 02:57:10;;;;;;;10.02;6.05;;;;;;;14.68;85.73;99036.47;4434262;32;34091;-73
2022/09/17 02:59:45;;;;;;;9.35;6.12;;;;;;;14.33;87.09;99039.34;4435271;32;33900;-73
2022/09/17 03:02:24;;;;;;;;;;;;;;;15.01;83.31;99030.03;4417991;32;34332;-72
2022/09/17 03:04:54;;;;;;;8.93;6.30;;;;;;;15.58;78.97;99019.47;4416518;32;34153;-75
2022/09/17 03:07:22;;;;;;;10.57;5.40;;;;;;;15.49;78.71;99013.28;4416396;32;33544;-74
2022/09/17 03:09:49;;;;;;;8.30;5.12;;;;;;;14.97;80.54;99012.59;4430101;32;33518;-73
2022/09/17 03:12:17;;;;;;;8.63;5.50;;;;;;;15.33;78.79;99001.75;4437778;32;33951;-73
2022/09/17 03:14:45;;;;;;;8.23;5.22;;;;;;;15.18;78.99;99005.88;4428544;32;33496;-72
2022/09/17 03:17:13;;;;;;;9.00;4.95;;;;;;;14.26;83.69;99001.00;4443579;32;33345;-77
2022/09/17 03:19:41;;;;;;;8.45;5.25;;;;;;;15.06;79.56;98988.34;4443189;32;34314;-76
2022/09/17 03:22:09;;;;;;;7.97;5.12;;;;;;;14.52;82.65;98977.97;4447078;32;34651;-76
2022/09/17 03:24:36;;;;;;;8.02;5.05;;;;;;;15.36;78.40;98958.31;4453327;32;34822;-77
2022/09/17 03:27:04;;;;;;;6.95;5.28;;;;;;;15.35;77.06;98954.81;4453889;32;33697;-74
2022/09/17 03:29:32;;;;;;;7.43;4.22;;;;;;;15.21;77.27;98949.41;4446548;32;34694;-75
2022/09/17 03:32:00;;;;;;;9.82;5.00;;;;;;;15.05;78.41;98947.50;4452904;32;34827;-76
2022/09/17 03:34:28;;;;;;;7.70;4.30;;;;;;;15.25;77.35;98939.91;4452369;32;34823;-75
2022/09/17 03:36:55;;;;;;;7.10;4.18;;;;;;;15.21;77.21;98927.69;4451435;32;33281;-76
2022/09/17 03:39:23;;;;;;;8.98;4.37;;;;;;;15.34;76.39;98919.16;4452883;32;33494;-76
2022/09/17 03:41:50;;;;;;;7.18;4.53;;;;;;;15.38;76.03;98923.53;4444082;32;34710;-76
2022/09/17 03:44:18;;;;;;;8.57;4.10;;;;;;;14.93;77.91;98932.53;4439462;32;34202;-74
2022/09/17 03:46:45;;;;;;;6.82;3.45;;;;;;;15.07;76.73;98931.00;4452641;32;33177;-74
2022/09/17 03:49:13;;;;;;;7.30;4.30;;;;;;;14.85;77.14;98935.03;4448747;32;34547;-76
2022/09/17 03:51:40;;;;;;;7.87;4.05;;;;;;;14.71;76.64;98937.44;4446332;32;34034;-75
2022/09/17 03:54:08;;;;;;;6.30;3.72;;;;;;;14.43;78.80;98940.47;4451610;32;34182;-75
2022/09/17 03:56:35;;;;;;;6.20;3.70;;;;;;;14.30;78.61;98937.69;4452103;32;33944;-76
2022/09/17 03:59:03;;;;;;;6.20;3.90;;;;;;;14.25;78.67;98935.84;4452532;32;34517;-76
2022/09/17 04:01:30;;;;;;;6.68;3.78;;;;;;;14.18;79.03;98950.50;4451672;32;34750;-76
2022/09/17 04:03:58;;;;;;;9.52;3.55;;;;;;;13.94;78.99;98951.81;4451904;32;34185;-76
2022/09/17 04:06:25;;;;;;;8.15;4.30;;;;;;;13.93;79.29;98960.50;4446705;32;34135;-75
2022/09/17 04:08:53;;;;;;;7.65;3.78;;;;;;;13.81;80.87;98960.28;4451091;32;34432;-77
2022/09/17 04:11:21;;;;;;;6.75;3.53;;;;;;;14.29;78.87;98963.69;4434071;32;33986;-77
2022/09/17 04:13:48;;;;;;;6.60;3.33;;;;;;;14.15;78.56;98969.56;4430855;32;193093;-77
2022/09/17 04:16:16;;;;;;;7.62;3.62;;;;;;;14.22;78.91;98954.91;4450991;32;34405;-75
2022/09/17 04:18:44;;;;;;;6.45;3.85;;;;;;;14.09;79.67;98950.34;4440483;32;34462;-75
2022/09/17 04:21:11;;;;;;;6.37;3.80;;;;;;;14.54;76.51;98949.31;4416601;32;33967;-76
2022/09/17 04:23:39;;;;;;;5.18;3.25;;;;;;;14.14;78.82;98944.38;4434072;32;34036;-77
2022/09/17 04:26:06;;;;;;;6.68;3.12;;;;;;;14.36;76.50;98929.97;4449365;32;33735;-75
2022/09/17 04:28:34;;;;;;;8.07;3.80;;;;;;;13.90;77.67;98934.41;4445254;32;33397;-75
2022/09/17 04:31:01;;;;;;;7.43;3.67;;;;;;;13.65;78.84;98927.00;4417589;32;34542;-76
2022/09/17 04:33:29;;;;;;;6.10;3.60;;;;;;;13.68;79.23;98930.56;4442450;32;34847;-74
2022/09/17 04:35:56;;;;;;;6.80;3.67;;;;;;;13.56;79.88;98925.13;4446188;32;34219;-74
2022/09/17 04:38:24;;;;;;;6.40;3.65;;;;;;;13.76;79.36;98928.09;4441226;32;33562;-77
2022/09/17 04:40:52;;;;;;;6.35;3.47;;;;;;;13.52;79.84;98919.00;4435616;32;33835;-75
2022/09/17 04:43:19;;;;;;;6.22;3.40;;;;;;;13.51;79.54;98914.62;4436249;32;34008;-77
2022/09/17 04:45:48;;;;;;;6.28;3.72;;;;;;;13.45;80.06;98919.72;4446883;32;33519;-75
2022/09/17 04:48:15;;;;;;;6.65;3.05;;;;;;;13.49;79.79;98921.53;4422043;32;34727;-75
2022/09/17 04:50:43;;;;;;;6.90;3.50;;;;;;;13.47;79.99;98928.44;4448435;32;33678;-76
2022/09/17 04:53:11;;;;;;;6.80;3.70;;;;;;;13.37;80.13;98937.78;4433731;32;32672;-76
2022/09/17 04:55:39;;;;;;;6.50;3.62;;;;;;;13.41;80.23;98923.09;4445657;32;33051;-74
2022/09/17 04:58:06;;;;;;;6.97;3.60;;;;;;;13.80;78.79;98924.69;4445986;32;33860;-75
2022/09/17 05:00:34;;;;;;;6.78;3.47;;;;;;;13.97;78.40;98925.00;4447287;32;33733;-74
2022/09/17 05:03:02;;;;;;;5.55;3.60;;;;;;;14.01;78.23;98918.13;4446320;32;33867;-74
2022/09/17 05:05:30;;;;;;;6.57;3.30;;;;;;;14.13;77.17;98918.31;4447803;32;33345;-75
2022/09/17 05:07:57;;;;;;;6.82;3.40;;;;;;;14.04;76.93;98910.34;4426647;32;33893;-74
2022/09/17 05:10:25;;;;;;;5.55;3.20;;;;;;;14.12;77.61;98920.03;4440241;32;33777;-75
2022/09/17 05:12:56;;;;;;;5.57;3.22;;;;;;;13.75;78.04;98924.63;4445372;32;33758;-74
2022/09/17 05:15:24;;;;;;;6.28;3.85;;;;;;;13.72;78.07;98924.56;4428183;32;32030;-77
2022/09/17 05:17:52;;;;;;;6.50;3.33;;;;;;;13.73;78.73;98936.72;4429793;32;33671;-75
2022/09/17 05:20:21;;;;;;;9.40;3.50;;;;;;;14.02;77.35;98948.50;4426864;32;34438;-76
2022/09/17 05:22:50;;;;;;;5.95;3.40;;;;;;;13.96;77.52;98944.94;4435120;32;34727;-76
2022/09/17 05:25:22;;;;;;;8.15;3.90;;;;;;;14.06;77.70;98945.09;4445273;32;34414;-77
2022/09/17 05:27:51;;;;;;;5.03;2.90;;;;;;;13.73;78.64;98961.84;4445612;32;35694;-75
2022/09/17 05:30:19;;;;;;;8.18;3.47;;;;;;;14.10;76.40;98962.50;4428264;32;34739;-77
2022/09/17 05:32:47;;;;;;;7.05;3.42;;;;;;;14.19;76.63;98975.69;4446976;32;33980;-75
2022/09/17 05:35:15;;;;;;;7.47;3.58;;;;;;;14.24;76.28;98981.00;4449349;32;34028;-75
2022/09/17 05:37:42;;;;;;;9.75;3.50;;;;;;;14.09;76.71;98979.87;4433301;32;33616;-74
2022/09/17 05:40:10;;;;;;;7.82;3.65;;;;;;;14.11;77.23;98985.13;4443148;32;34701;-75
2022/09/17 05:42:37;;;;;;;8.38;3.67;;;;;;;14.03;78.15;98971.09;4426348;32;33990;-75
2022/09/17 05:45:06;;;;;;;5.95;3.47;;;;;;;14.40;76.63;98972.56;4438553;32;33390;-76
2022/09/17 05:47:34;;;;;;;7.82;3.40;;;;;;;14.03;77.17;98976.28;4441697;32;33676;-76
2022/09/17 05:50:01;;;;;;;8.43;3.75;;;;;;;13.77;78.52;98984.47;4440645;32;33808;-74
2022/09/17 05:52:29;;;;;;;7.70;3.40;;;;;;;13.77;78.67;98979.28;4426398;32;34049;-74
2022/09/17 05:54:56;;;;;;;7.22;4.00;;;;;;;13.70;79.38;98987.84;4443388;32;33327;-76
2022/09/17 05:57:24;;;;;;;6.15;3.78;;;;;;;13.49;80.20;98988.28;4445665;32;33847;-75
2022/09/17 05:59:51;;;;;;;7.30;3.60;;;;;;;13.42;80.43;98983.81;4445873;32;33993;-76
2022/09/17 06:02:19;;;;;;;6.18;3.90;;;;;;;13.35;80.55;98993.22;4446310;32;34176;-75
2022/09/17 06:04:46;;;;;;;6.60;3.58;;;;;;;13.61;79.96;98988.53;4434078;32;33942;-75
2022/09/17 06:07:14;;;;;;;6.12;3.72;;;;;;;13.73;78.97;99000.91;4441720;32;33728;-75
2022/09/17 06:09:41;;;;;;;5.82;3.55;;;;;;;13.70;79.60;99004.31;4443446;32;33429;-77
2022/09/17 06:12:09;;;;;;;5.78;3.60;;;;;;;13.80;80.03;99005.38;4447715;32;32949;-75
2022/09/17 06:14:36;;;;;;;6.90;3.55;;;;;;;13.98;77.71;98993.56;4445740;32;33663;-74
2022/09/17 06:17:04;;;;;;;6.75;3.65;;;;;;;13.84;77.79;98985.50;4442037;32;33760;-77
2022/09/17 06:19:31;;;;;;;7.87;3.50;;;;;;;13.82;77.97;98990.66;4444722;32;34725;-75
2022/09/17 06:21:59;;;;;;;5.90;3.85;;;;;;;13.86;77.95;98994.22;4444174;32;34599;-75
2022/09/17 06:24:26;;;;;;;6.57;3.22;;;;;;;14.23;75.66;99000.94;4447996;32;33490;-75
2022/09/17 06:26:54;;;;;;;5.95;3.55;;;;;;;14.42;75.19;98996.06;4445225;32;33904;-74
2022/09/17 06:29:21;;;;;;;6.75;3.08;;;;;;;14.36;75.60;99007.25;4443711;32;34054;-76
2022/09/17 06:31:49;;;;;;;5.78;2.92;;;;;;;14.53;75.36;99007.53;4442785;32;34134;-75
2022/09/17 06:34:17;;;;;;;7.55;3.12;;;;;;;14.78;73.16;99010.56;4418840;32;32077;-74
2022/09/17 06:36:45;;;;;;;10.05;3.00;;;;;;;14.77;72.68;99008.78;4439958;32;33997;-75
2022/09/17 06:39:12;;;;;;;7.43;2.85;;;;;;;14.56;73.07;99010.16;4439023;32;35671;-75
2022/09/17 06:41:42;;;;;;;6.05;2.83;;;;;;;14.62;73.01;99015.53;4440199;32;35002;-76
2022/09/17 06:44:10;;;;;;;7.00;3.00;;;;;;;14.54;72.67;99017.09;4422113;32;33140;-76
2022/09/17 06:46:37;;;;;;;5.05;2.83;;;;;;;14.52;72.35;99016.19;4444059;32;33822;-74
2022/09/17 06:49:07;;;;;;;9.75;2.87;;;;;;;14.58;72.44;99023.25;4447508;32;33669;-74
2022/09/17 06:51:34;;;;;;;6.50;3.53;;;;;;;14.49;72.66;99030.06;4435070;32;33823;-75
2022/09/17 06:54:02;;;;;;;5.60;3.00;;;;;;;14.63;72.78;99029.44;4429368;32;35286;-74
2022/09/17 06:56:32;;;;;;;6.85;3.08;;;;;;;14.53;73.84;99030.97;4438643;32;34239;-77
2022/09/17 06:59:00;;;;;;;7.43;3.35;;;;;;;15.09;71.77;99017.97;4440080;32;34372;-74
2022/09/17 07:01:27;;;;;;;6.55;2.80;;;;;;;15.28;70.45;99019.09;4443070;32;33835;-76
2022/09/17 07:03:55;;;;;;;4.32;2.60;;;;;;;15.03;70.48;99023.09;4430113;32;33583;-75
2022/09/17 07:06:22;;;;;;;4.53;2.58;;;;;;;14.91;70.60;99026.41;4438013;32;33693;-76
2022/09/17 07:08:49;;;;;;;6.75;3.00;;;;;;;14.69;71.42;99009.53;4441342;32;33451;-77
2022/09/17 07:11:17;;;;;;;5.53;2.80;;;;;;;14.50;72.23;99021.38;4440579;32;34304;-74
2022/09/17 07:13:44;;;;;;;6.40;3.10;;;;;;;14.12;75.62;99033.75;4448998;32;33781;-75
2022/09/17 07:16:12;;;;;;;5.53;3.28;;;;;;;14.79;71.87;99030.53;4444551;32;33763;-73
2022/09/17 07:18:41;;;;;;;7.18;3.87;;;;;;;14.70;72.34;99016.53;4447532;32;33660;-74
2022/09/17 07:21:09;;;;;;;5.53;2.83;;;;;;;14.79;71.74;99007.94;4410508;32;33485;-75
2022/09/17 07:23:36;;;;;;;9.10;3.30;;;;;;;13.84;75.29;98996.78;4429042;32;33177;-76
2022/09/17 07:26:06;;;;;;;6.12;2.87;;;;;;;13.83;75.66;99010.66;4418714;32;32031;-76
2022/09/17 07:28:34;;;;;;;6.60;2.50;;;;;;;14.17;73.77;99011.25;4415696;32;34547;-72
2022/09/17 07:31:04;;;;;;;8.30;3.17;;;;;;;14.00;74.21;99017.87;4430116;32;33556;-74
2022/09/17 07:33:34;;;;;;;5.53;2.85;;;;;;;14.61;72.38;99013.75;4438049;32;33604;-75
2022/09/17 07:36:03;;;;;;;5.95;3.03;;;;;;;14.78;71.49;99023.59;4441763;32;33902;-74
2022/09/17 07:38:32;;;;;;;7.10;3.10;;;;;;;14.82;70.63;99025.37;4434309;32;35780;-75
2022/09/17 07:41:02;;;;;;;7.60;2.70;;;;;;;14.58;72.37;99024.13;4437502;32;34701;-73
2022/09/17 07:43:31;;;;;;;5.90;2.78;;;;;;;15.05;70.04;99016.16;4444399;32;34346;-75
2022/09/17 07:46:00;;;;;;;6.75;2.85;;;;;;;14.92;70.37;99030.75;4445949;32;33758;-74
2022/09/17 07:48:29;;;;;;;5.85;2.87;;;;;;;15.30;68.90;99033.03;4439125;32;34106;-74
2022/09/17 07:50:56;;;;;;;5.78;2.80;;;;;;;15.43;68.87;99036.69;4435431;32;34934;-72
2022/09/17 07:53:24;;;;;;;6.00;2.85;;;;;;;15.85;66.71;99030.25;4429706;32;31942;-75
2022/09/17 07:55:55;;;;;;;8.10;2.65;;;;;;;15.46;68.50;99033.25;4443745;32;34580;-75
2022/09/17 07:58:28;;;;;;;4.07;2.30;;;;;;;15.73;66.63;99032.72;4438708;32;33495;-76
2022/09/17 08:01:03;;;;;;;4.50;2.47;;;;;;;15.54;67.19;99029.84;4438032;32;33840;-76
2022/09/17 08:03:31;;;;;;;5.22;2.35;;;;;;;15.98;65.83;99028.66;4433820;32;33670;-73
2022/09/17 08:06:07;;;;;;;6.30;2.50;;;;;;;15.33;67.51;99040.00;4437745;32;33817;-75
2022/09/17 08:08:36;;;;;;;5.70;2.75;;;;;;;15.33;68.05;99047.84;4436260;32;34905;-74
2022/09/17 08:11:08;;;;;;;4.68;2.25;;;;;;;15.48;67.46;99062.84;4424548;32;33941;-75
2022/09/17 08:13:36;;;;;;;6.12;2.30;;;;;;;15.75;67.24;99067.56;4441422;32;34388;-74
2022/09/17 08:16:07;;;;;;;6.25;2.83;;;;;;;15.62;65.61;99065.63;4438292;32;34649;-73
2022/09/17 08:18:34;;;;;;;5.47;2.75;;;;;;;15.54;66.74;99074.22;4428653;32;34748;-76
2022/09/17 08:21:04;;;;;;;7.43;2.80;;;;;;;15.22;67.32;99081.63;4439756;32;34710;-74
2022/09/17 08:23:36;;;;;;;4.97;2.75;;;;;;;15.43;66.97;99075.84;4441005;32;34323;-74
2022/09/17 08:26:07;;;;;;;6.47;2.55;;;;;;;15.38;67.55;99080.09;4444386;32;32529;-76
2022/09/17 08:28:35;;;;;;;5.03;2.65;;;;;;;15.12;68.42;99078.00;4447167;32;33993;-73
2022/09/17 08:31:07;;;;;;;4.60;2.35;;;;;;;15.33;67.90;99081.75;4435028;32;33772;-75
2022/09/17 08:33:37;;;;;;;6.22;2.40;;;;;;;15.07;69.30;99087.50;4428750;32;33648;-75
2022/09/17 08:36:06;;;;;;;5.93;2.80;;;;;;;15.24;68.86;99087.75;4443676;32;33683;-76
2022/09/17 08:38:37;;;;;;;4.12;1.95;;;;;;;15.12;69.03;99074.50;4447441;32;34725;-76
2022/09/17 08:41:08;;;;;;;5.10;2.33;;;;;;;15.09;67.64;99080.56;4444529;32;34769;-74
2022/09/17 08:43:45;;;;;;;5.37;2.60;;;;;;;14.66;69.06;99069.47;4428025;32;32090;-76
2022/09/17 08:46:12;;;;;;;4.03;2.10;;;;;;;14.91;69.44;99064.63;4417959;32;33530;-74
2022/09/17 08:48:42;;;;;;;11.80;2.92;;;;;;;14.70;68.98;99046.94;4433848;32;34746;-73
2022/09/17 08:51:24;;;;;;;6.25;2.70;;;;;;;14.64;70.17;99037.28;4436996;32;34219;-75
2022/09/17 08:53:57;;;;;;;7.62;2.40;;;;;;;14.91;68.82;99043.75;4432401;32;33662;-74
2022/09/17 08:56:25;;;;;;;5.00;2.45;;;;;;;15.02;68.60;99052.62;4426147;32;33723;-75
2022/09/17 08:59:03;;;;;;;5.50;2.55;;;;;;;15.20;68.58;99053.75;4439544;32;34093;-74
2022/09/17 09:01:47;;;;;;;5.97;2.35;;;;;;;14.90;69.76;99057.66;4424624;32;33531;-75
2022/09/17 09:04:21;;;;;;;7.32;2.72;;;;;;;15.00;68.66;99064.78;4445573;32;33324;-74
2022/09/17 09:06:53;;;;;;;10.88;2.97;;;;;;;14.96;69.01;99070.78;4430009;32;32477;-73
2022/09/17 09:09:24;;;;;;;5.35;2.17;;;;;;;14.81;69.84;99067.94;4445767;32;34008;-72
2022/09/17 09:12:02;;;;;;;5.20;2.25;;;;;;;14.72;69.12;99069.56;4421985;32;33969;-74
2022/09/17 09:14:38;;;;;;;4.45;2.35;;;;;;;14.89;68.53;99063.72;4442560;32;33647;-75
2022/09/17 09:17:08;;;;;;;4.60;2.42;;;;;;;14.83;68.49;99072.31;4425399;32;33725;-72
2022/09/17 09:19:42;;;;;;;5.57;2.33;;;;;;;14.73;68.83;99071.28;4435987;32;33093;-72
2022/09/17 09:22:19;;;;;;;6.95;2.42;;;;;;;14.59;69.89;99064.13;4424386;32;34211;-75
2022/09/17 09:25:00;;;;;;;4.87;2.15;;;;;;;14.66;68.05;99069.47;4438969;32;33955;-74
2022/09/17 09:27:28;;;;;;;5.18;2.30;;;;;;;14.71;68.83;99070.41;4442247;32;34518;-73
2022/09/17 09:30:03;;;;;;;5.80;1.98;;;;;;;15.08;67.36;99064.88;4427868;32;34059;-75
2022/09/17 09:32:33;;;;;;;3.90;2.30;;;;;;;14.98;67.75;99056.03;4428720;32;34002;-73
2022/09/17 09:35:08;;;;;;;5.07;2.15;;;;;;;15.11;67.59;99065.81;4447925;32;33591;-76
2022/09/17 09:37:38;;;;;;;4.90;2.30;;;;;;;14.81;67.95;99067.94;4431150;32;33585;-76
2022/09/17 09:40:27;;;;;;;5.15;2.30;;;;;;;15.01;67.59;99071.75;4434582;32;33178;-74
2022/09/17 09:42:59;;;;;;;4.18;2.28;;;;;;;14.97;67.71;99071.66;4418427;32;34011;-74
2022/09/17 09:46:16;;;;;;;5.95;2.50;;;;;;;14.88;67.74;99070.69;4424142;32;33528;-75
2022/09/17 09:49:04;;;;;;;6.75;2.33;;;;;;;14.90;69.67;99073.31;4429381;32;33903;-74
2022/09/17 09:51:51;;;;;;;5.32;2.28;;;;;;;14.97;68.40;99064.75;4420407;32;34091;-74
2022/09/17 09:54:49;;;;;;;3.33;1.75;;;;;;;14.75;68.73;99066.97;4434953;32;34954;-75
2022/09/17 09:57:21;;;;;;;6.57;2.35;;;;;;;14.91;67.53;99077.66;4440234;32;32534;-76
2022/09/17 09:59:48;;;;;;;6.47;2.60;;;;;;;15.33;67.25;99077.41;4431381;32;34135;-73
2022/09/17 10:02:16;;;;;;;6.20;3.12;;;;;;;15.79;65.81;99086.75;4442062;32;34428;-75
2022/09/17 10:04:44;;;;;;;4.57;1.60;;;;;;;14.92;68.08;99089.84;4437889;32;34809;-73
2022/09/17 10:07:17;;;;;;;6.50;1.85;;;;;;;15.24;64.22;99076.41;4447846;32;33672;-74
2022/09/17 10:09:45;;;;;;;6.22;1.48;;;;;;;15.24;63.71;99058.16;4435312;32;34014;-75
2022/09/17 10:12:12;;;;;;;4.28;1.40;;;;;;;15.47;63.41;99054.13;4442971;32;34649;-75
2022/09/17 10:14:42;;;;;;;2.60;1.27;;;;;;;15.46;62.36;99049.75;4441036;32;34525;-72
2022/09/17 10:17:15;;;;;;;2.67;1.40;;;;;;;15.12;62.72;99061.47;4435606;32;34466;-76
2022/09/17 10:19:44;;;;;;;3.65;1.67;;;;;;;15.28;61.85;99050.41;4442230;32;34795;-72
2022/09/17 10:22:21;;;;;;;5.97;1.50;;;;;;;14.93;62.89;99047.25;4440598;32;34001;-72
2022/09/17 10:24:49;;;;;;;5.90;1.33;;;;;;;15.03;62.92;99032.66;4445091;32;33669;-79
2022/09/17 10:27:18;;;;;;;2.90;1.30;;;;;;;15.20;63.20;99025.06;4442147;32;34010;-77
2022/09/17 10:29:48;;;;;;;2.67;1.12;;;;;;;15.51;61.82;99006.34;4421899;32;33854;-75
2022/09/17 10:32:17;;;;;;;2.40;0.95;;;;;;;15.33;59.87;99003.47;4427628;32;33584;-75
2022/09/17 10:35:14;;;;;;;3.92;1.30;;;;;;;15.14;60.08;99005.88;4438508;32;34757;-76
2022/09/17 10:37:47;;;;;;;5.12;1.37;;;;;;;14.65;60.59;99031.22;4435836;32;33617;-76
2022/09/17 10:40:17;;;;;;;4.37;0.90;;;;;;;14.67;60.28;99034.72;4425287;32;33801;-74
2022/09/17 10:42:50;;;;;;;4.05;0.90;;;;;;;14.98;59.62;99032.56;4444866;32;34593;-77
2022/09/17 10:45:38;;;;;;;4.25;1.33;;;;;;;15.08;57.81;99025.75;4447321;32;34472;-78
2022/09/17 10:48:15;;;;;;;3.28;1.35;;;;;;;15.01;59.45;99029.12;4435486;32;33201;-78
2022/09/17 10:50:53;;;;;;;2.33;0.77;;;;;;;15.23;57.19;98993.78;4425136;32;33585;-75
2022/09/17 10:53:24;;;;;;;3.12;1.15;;;;;;;15.22;57.38;98977.28;4433663;32;32779;-77
2022/09/17 10:56:00;;;;;;;4.12;1.05;;;;;;;14.98;58.10;98977.81;4413441;32;33878;-77
2022/09/17 10:58:43;;;;;;;4.82;1.08;;;;;;;15.16;58.48;98965.88;4423425;32;33310;-78
2022/09/17 11:01:43;;;;;;;4.22;1.10;;;;;;;15.08;58.72;98937.94;4438964;32;34012;-78
2022/09/17 11:04:39;;;;;;;5.03;1.50;;;;;;;15.30;59.72;98959.09;4440595;32;33882;-76
2022/09/17 11:07:38;;;;;;;4.65;1.17;;;;;;;16.02;57.79;98983.41;4421295;32;34856;-78
2022/09/17 11:10:11;;;;;;;3.30;1.45;;;;;;;15.64;58.72;98986.44;4425219;32;34187;-78
2022/09/17 11:13:01;;;;;;;4.62;1.10;;;;;;;15.06;61.46;99007.47;4444663;32;33899;-77
2022/09/17 11:15:45;;;;;;;4.80;1.23;;;;;;;14.72;62.15;99007.00;4435598;32;33667;-76
2022/09/17 11:18:43;;;;;;;3.40;1.10;;;;;;;14.87;60.71;98992.41;4445079;32;34460;-77
2022/09/17 11:21:28;;;;;;;4.30;1.80;;;;;;;14.93;60.71;98995.09;4448736;32;33636;-78
2022/09/17 11:24:48;;;;;;;4.18;1.40;;;;;;;14.50;62.85;99023.09;4426354;32;33801;-77
2022/09/17 11:27:31;;;;;;;7.55;1.58;;;;;;;15.22;61.37;99028.56;4406768;32;33293;-74
2022/09/17 11:30:09;;;;;;;4.90;1.20;;;;;;;15.07;61.85;99045.75;4448646;32;34626;-73
2022/09/17 11:32:44;;;;;;;4.30;1.40;;;;;;;14.39;63.19;99027.25;4430415;32;34415;-76
2022/09/17 11:35:20;;;;;;;2.20;0.95;;;;;;;15.04;60.78;99003.97;4439775;32;34623;-75
2022/09/17 11:38:11;;;;;;;4.25;1.40;;;;;;;15.12;60.64;99004.97;4444063;32;35422;-74
2022/09/17 11:41:02;;;;;;;2.12;1.15;;;;;;;15.02;61.36;99005.69;4440302;32;34203;-75
2022/09/17 11:43:35;;;;;;;3.25;1.12;;;;;;;15.24;61.23;99001.66;4425472;32;34350;-78
2022/09/17 11:46:23;;;;;;;3.12;1.40;;;;;;;15.22;62.08;99002.47;4440190;32;34401;-77
2022/09/17 11:48:59;;;;;;;3.30;1.30;;;;;;;15.18;61.10;98982.41;4445279;32;34153;-73
2022/09/17 11:51:32;;;;;;;1.50;1.00;;;;;;;15.13;61.19;98967.59;4428129;32;34144;-72
2022/09/17 11:54:25;;;;;;;2.87;1.12;;;;;;;15.12;60.00;98952.81;4444435;32;33278;-74
2022/09/17 11:57:08;;;;;;;2.78;1.05;;;;;;;15.19;60.55;98939.84;4441194;32;33384;-74
2022/09/17 11:59:42;;;;;;;3.42;1.00;;;;;;;15.12;59.71;98938.88;4421966;32;34315;-74